createdAt,value
2018-09-28T00:01:03.297Z,82.28
2018-09-28T00:02:03.636Z,83.67
2018-09-28T00:03:57.949Z,84.23
2018-09-28T00:04:57.999Z,84.33
2018-09-28T00:06:52.674Z,85.77
2018-09-28T00:07:53.096Z,85.29
2018-09-28T00:09:47.270Z,85.77
2018-09-28T00:10:47.339Z,86.15
2018-09-28T00:14:50.441Z,85.48
2018-09-28T00:15:26.892Z,85.58
2018-09-28T00:17:18.676Z,85.38
2018-09-28T00:18:19.554Z,86.05
2018-09-28T00:20:13.816Z,86.63
2018-09-28T00:21:13.782Z,86.43
2018-09-28T00:23:07.934Z,86.05
2018-09-28T00:24:08.789Z,85.19
2018-09-28T00:26:02.931Z,86.58
2018-09-28T00:27:03.055Z,86.58
2018-09-28T00:28:57.378Z,86.87
2018-09-28T00:29:57.648Z,87.06
2018-09-28T00:31:52.948Z,88.30
2018-09-28T00:34:06.563Z,87.63
2018-09-28T00:35:07.072Z,86.58
2018-09-28T00:37:01.976Z,87.25
2018-09-28T00:38:02.261Z,87.92
2018-09-28T00:39:56.892Z,88.30
2018-09-28T00:40:56.681Z,88.49
2018-09-28T00:42:50.866Z,89.16
2018-09-28T00:43:51.020Z,88.68
2018-09-28T00:45:45.759Z,88.78
2018-09-28T00:46:45.542Z,88.78
2018-09-28T00:48:39.739Z,89.64
2018-09-28T00:49:39.824Z,90.55
2018-09-28T00:51:34.530Z,89.73
2018-09-28T00:52:35.042Z,89.64
2018-09-28T00:54:28.879Z,91.31
2018-09-28T00:55:29.134Z,91.60
2018-09-28T00:57:23.351Z,90.83
2018-09-28T00:58:23.939Z,90.83
2018-09-28T01:00:18.202Z,89.92
2018-09-28T01:01:18.519Z,91.02
2018-09-28T01:03:11.910Z,91.50
2018-09-28T01:04:12.173Z,91.41
2018-09-28T01:06:29.096Z,91.98
2018-09-28T01:07:06.897Z,91.69
2018-09-28T01:09:01.006Z,91.26
2018-09-28T01:10:02.652Z,90.36
2018-09-28T01:13:38.138Z,88.87
2018-09-28T01:14:28.564Z,90.64
2018-09-28T01:16:40.744Z,90.02
2018-09-28T01:17:23.993Z,90.78
2018-09-28T01:19:18.405Z,90.59
2018-09-28T01:20:20.372Z,91.60
2018-09-28T01:22:12.557Z,92.07
2018-09-28T01:23:12.766Z,91.41
2018-09-28T01:25:07.422Z,92.26
2018-09-28T01:26:07.525Z,91.88
2018-09-28T01:28:02.291Z,91.88
2018-09-28T01:29:02.405Z,91.88
2018-09-28T01:30:56.855Z,90.26
2018-09-28T01:31:59.886Z,89.73
2018-09-28T01:33:51.201Z,88.68
2018-09-28T01:34:51.631Z,89.35
2018-09-28T01:36:46.463Z,89.59
2018-09-28T01:39:00.454Z,90.45
2018-09-28T01:40:00.867Z,90.45
2018-09-28T01:41:55.252Z,90.45
2018-09-28T01:42:55.160Z,91.02
2018-09-28T01:46:32.988Z,91.41
2018-09-28T01:47:22.586Z,91.41
2018-09-28T01:49:17.026Z,91.50
2018-09-28T01:50:16.815Z,91.88
2018-09-28T01:52:13.696Z,91.88
2018-09-28T01:54:26.504Z,91.88
2018-09-28T01:55:26.808Z,91.60
2018-09-28T01:57:20.727Z,91.78
2018-09-28T01:58:20.837Z,91.31
2018-09-28T02:00:15.604Z,91.02
2018-09-28T02:01:15.362Z,90.45
2018-09-28T02:03:35.021Z,91.41
2018-09-28T02:04:09.437Z,91.02
2018-09-28T02:06:03.603Z,90.36
2018-09-28T02:07:04.222Z,90.73
2018-09-28T02:08:57.609Z,91.02
2018-09-28T02:11:52.963Z,91.69
2018-09-28T02:12:13.694Z,91.78
2018-09-28T02:13:13.768Z,91.50
2018-09-28T02:14:14.041Z,91.69
2018-09-28T02:15:13.714Z,91.60
2018-09-28T02:16:14.101Z,91.88
2018-09-28T02:17:18.554Z,90.88
2018-09-28T02:19:46.924Z,91.64
2018-09-28T02:22:01.814Z,92.31
2018-09-28T02:23:02.153Z,91.83
2018-09-28T02:25:01.976Z,91.16
2018-09-28T02:25:56.991Z,90.69
2018-09-28T02:27:51.136Z,91.55
2018-09-28T02:28:51.633Z,92.31
2018-09-28T02:29:51.667Z,92.41
2018-09-28T02:30:51.491Z,91.74
2018-09-28T02:31:51.424Z,92.21
2018-09-28T02:32:51.533Z,91.64
2018-09-28T02:33:51.643Z,92.21
2018-09-28T02:34:51.655Z,91.64
2018-09-28T02:35:51.437Z,91.93
2018-09-28T02:38:24.254Z,91.64
2018-09-28T02:39:24.443Z,91.16
2018-09-28T02:41:19.176Z,91.93
2018-09-28T02:42:19.197Z,92.97
2018-09-28T02:44:12.890Z,93.07
2018-09-28T02:45:13.092Z,94.12
2018-09-28T02:47:07.006Z,93.26
2018-09-28T02:48:08.073Z,92.88
2018-09-28T02:50:02.155Z,93.36
2018-09-28T02:51:01.991Z,93.74
2018-09-28T02:52:56.872Z,93.17
2018-09-28T02:53:56.828Z,93.17
2018-09-28T02:55:51.281Z,94.22
2018-09-28T02:56:51.520Z,93.36
2018-09-28T02:58:45.647Z,93.65
2018-09-28T02:59:46.013Z,92.69
2018-09-28T03:01:42.813Z,93.93
2018-09-28T03:02:42.803Z,93.46
2018-09-28T03:04:03.244Z,93.74
2018-09-28T03:04:43.558Z,93.65
2018-09-28T03:05:43.808Z,93.31
2018-09-28T03:08:16.387Z,92.55
2018-09-28T03:09:18.377Z,93.21
2018-09-28T03:11:12.444Z,92.93
2018-09-28T03:13:24.704Z,93.31
2018-09-28T03:14:25.501Z,93.98
2018-09-28T03:16:19.176Z,93.98
2018-09-28T03:17:19.119Z,93.98
2018-09-28T03:19:52.776Z,92.83
2018-09-28T03:20:52.872Z,93.21
2018-09-28T03:22:46.861Z,95.03
2018-09-28T03:23:47.719Z,95.41
2018-09-28T03:26:18.718Z,94.36
2018-09-28T03:28:19.407Z,94.36
2018-09-28T03:29:10.867Z,94.65
2018-09-28T03:31:04.941Z,94.84
2018-09-28T03:33:20.110Z,95.51
2018-09-28T03:34:19.576Z,96.75
2018-09-28T03:36:13.288Z,95.61
2018-09-28T03:37:14.248Z,94.84
2018-09-28T03:39:08.492Z,95.22
2018-09-28T03:40:08.899Z,95.12
2018-09-28T03:42:03.080Z,95.22
2018-09-28T03:43:03.061Z,95.75
2018-09-28T03:44:03.296Z,95.75
2018-09-28T03:45:04.094Z,95.56
2018-09-28T03:46:03.656Z,95.65
2018-09-28T03:47:03.677Z,96.89
2018-09-28T03:48:03.409Z,97.28
2018-09-28T03:49:03.407Z,97.28
2018-09-28T03:50:06.058Z,97.56
2018-09-28T03:51:03.609Z,98.33
2018-09-28T03:52:02.568Z,98.80
2018-09-28T03:53:03.058Z,98.04
2018-09-28T03:54:03.559Z,98.23
2018-09-28T03:56:31.838Z,97.66
2018-09-28T03:57:29.704Z,97.75
2018-09-28T03:58:30.248Z,98.42
2018-09-28T03:59:29.576Z,98.99
2018-09-28T04:00:29.484Z,98.90
2018-09-28T04:01:29.986Z,98.13
2018-09-28T04:02:30.358Z,97.56
2018-09-28T04:03:36.228Z,97.94
2018-09-28T04:04:30.195Z,97.66
2018-09-28T04:05:29.462Z,97.85
2018-09-28T04:06:31.872Z,99.19
2018-09-28T04:07:29.785Z,97.66
2018-09-28T04:08:30.229Z,98.99
2018-09-28T04:09:30.229Z,99.09
2018-09-28T04:11:30.716Z,98.71
2018-09-28T04:12:50.256Z,98.61
2018-09-28T04:13:29.943Z,99.43
2018-09-28T04:14:29.990Z,99.99
2018-09-28T04:15:30.238Z,99.99
2018-09-28T04:16:50.238Z,99.99
2018-09-28T04:17:31.714Z,99.99
2018-09-28T04:18:30.060Z,98.95
2018-09-28T04:19:29.701Z,99.24
2018-09-28T04:22:15.390Z,99.99
2018-09-28T04:23:15.739Z,99.99
2018-09-28T04:25:09.581Z,99.99
2018-09-28T04:26:45.738Z,99.99
2018-09-28T04:27:09.989Z,99.99
2018-09-28T04:28:09.665Z,99.99
2018-09-28T04:29:11.760Z,99.99
2018-09-28T04:30:13.751Z,99.99
2018-09-28T04:31:09.493Z,99.99
2018-09-28T04:32:10.237Z,99.99
2018-09-28T04:33:09.573Z,99.99
2018-09-28T04:34:10.240Z,99.99
2018-09-28T04:35:09.500Z,99.99
2018-09-28T04:36:09.703Z,99.99
2018-09-28T04:37:10.348Z,99.99
2018-09-28T04:38:09.715Z,99.99
2018-09-28T04:39:10.741Z,99.99
2018-09-28T04:40:10.202Z,99.99
2018-09-28T04:41:10.204Z,99.99
2018-09-28T04:42:10.265Z,99.99
2018-09-28T04:43:10.022Z,99.99
2018-09-28T04:44:10.054Z,99.99
2018-09-28T04:45:10.036Z,99.99
2018-09-28T04:46:09.507Z,99.99
2018-09-28T04:47:09.939Z,99.99
2018-09-28T04:48:45.743Z,99.99
2018-09-28T04:49:08.548Z,99.99
2018-09-28T04:50:09.464Z,99.99
2018-09-28T04:51:10.059Z,99.99
2018-09-28T04:52:09.979Z,99.99
2018-09-28T04:54:10.057Z,99.99
2018-09-28T04:56:04.827Z,99.99
2018-09-28T04:57:04.558Z,99.99
2018-09-28T04:59:04.477Z,99.99
2018-09-28T05:00:02.027Z,99.99
2018-09-28T05:01:02.264Z,99.99
2018-09-28T05:02:02.984Z,99.99
2018-09-28T05:03:02.487Z,99.99
2018-09-28T05:04:03.927Z,99.99
2018-09-28T05:05:01.996Z,99.99
2018-09-28T05:06:04.448Z,99.99
2018-09-28T05:07:22.655Z,99.99
2018-09-28T05:08:04.787Z,99.99
2018-09-28T05:09:04.577Z,99.99
2018-09-28T05:10:02.514Z,99.99
2018-09-28T05:11:02.045Z,99.99
2018-09-28T05:12:03.929Z,99.99
2018-09-28T05:13:04.514Z,99.99
2018-09-28T05:14:02.223Z,99.99
2018-09-28T05:15:01.790Z,99.99
2018-09-28T05:16:04.793Z,99.99
2018-09-28T05:17:01.987Z,99.99
2018-09-28T05:19:35.328Z,99.99
2018-09-28T05:20:35.219Z,99.99
2018-09-28T05:22:29.393Z,99.99
2018-09-28T05:24:44.258Z,99.99
2018-09-28T05:25:44.530Z,99.99
2018-09-28T05:27:38.880Z,99.99
2018-09-28T05:28:38.864Z,99.99
2018-09-28T05:30:35.393Z,99.99
2018-09-28T05:31:35.529Z,99.99
2018-09-28T05:33:28.910Z,99.99
2018-09-28T05:34:30.206Z,99.99
2018-09-28T05:35:29.737Z,99.99
2018-09-28T05:36:29.284Z,99.99
2018-09-28T05:37:31.408Z,99.99
2018-09-28T05:38:28.902Z,99.99
2018-09-28T05:39:30.466Z,99.99
2018-09-28T05:40:30.233Z,99.99
2018-09-28T05:41:44.887Z,99.99
2018-09-28T05:42:52.142Z,99.99
2018-09-28T05:43:29.674Z,99.99
2018-09-28T05:44:29.945Z,99.99
2018-09-28T05:47:03.278Z,99.99
2018-09-28T05:48:03.250Z,99.99
2018-09-28T05:49:08.311Z,99.99
2018-09-28T05:50:03.406Z,99.99
2018-09-28T05:51:23.957Z,99.99
2018-09-28T05:52:02.726Z,99.99
2018-09-28T05:53:03.313Z,99.99
2018-09-28T05:54:17.793Z,99.99
2018-09-28T05:55:01.621Z,99.99
2018-09-28T05:56:08.906Z,99.99
2018-09-28T05:58:36.434Z,99.99
2018-09-28T05:59:36.731Z,99.99
2018-09-28T06:01:43.383Z,99.99
2018-09-28T06:02:43.721Z,99.99
2018-09-28T06:04:40.050Z,99.99
2018-09-28T06:05:40.121Z,99.99
2018-09-28T06:07:42.135Z,99.99
2018-09-28T06:08:40.358Z,99.99
2018-09-28T06:10:41.500Z,99.99
2018-09-28T06:11:39.104Z,99.99
2018-09-28T06:12:43.952Z,99.99
2018-09-28T06:13:40.730Z,99.99
2018-09-28T06:14:39.057Z,99.99
2018-09-28T06:15:40.158Z,99.99
2018-09-28T06:16:43.317Z,99.99
2018-09-28T06:17:40.368Z,99.99
2018-09-28T06:19:00.851Z,99.99
2018-09-28T06:19:41.593Z,99.99
2018-09-28T06:20:39.554Z,99.99
2018-09-28T06:21:41.373Z,99.99
2018-09-28T06:22:39.145Z,99.99
2018-09-28T06:23:41.667Z,99.99
2018-09-28T06:24:40.579Z,99.99
2018-09-28T06:25:39.332Z,99.99
2018-09-28T06:26:41.636Z,99.99
2018-09-28T06:28:04.095Z,99.99
2018-09-28T06:30:13.071Z,99.99
2018-09-28T06:31:12.781Z,99.99
2018-09-28T06:33:07.244Z,99.99
2018-09-28T06:34:07.666Z,99.99
2018-09-28T06:36:06.990Z,99.99
2018-09-28T06:37:05.156Z,99.99
2018-09-28T06:38:06.124Z,99.99
2018-09-28T06:39:21.167Z,99.99
2018-09-28T06:41:45.855Z,99.99
2018-09-28T06:43:55.573Z,99.99
2018-09-28T06:44:54.950Z,99.99
2018-09-28T06:46:01.486Z,99.99
2018-09-28T06:47:08.517Z,99.99
2018-09-28T06:47:55.595Z,99.99
2018-09-28T06:50:52.991Z,99.99
2018-09-28T06:51:53.122Z,99.99
2018-09-28T06:54:03.005Z,99.99
2018-09-28T06:56:02.906Z,99.99
2018-09-28T06:57:02.541Z,99.99
2018-09-28T06:59:11.288Z,99.99
2018-09-28T06:59:58.937Z,99.99
2018-09-28T07:01:53.496Z,99.99
2018-09-28T07:02:52.951Z,99.99
2018-09-28T07:05:12.646Z,99.99
2018-09-28T07:06:45.357Z,99.99
2018-09-28T07:07:45.787Z,99.99
2018-09-28T07:09:43.667Z,99.99
2018-09-28T07:10:39.493Z,99.99
2018-09-28T07:11:42.294Z,99.99
2018-09-28T07:12:39.364Z,99.99
2018-09-28T07:13:39.958Z,99.99
2018-09-28T07:14:39.944Z,99.99
2018-09-28T07:15:39.449Z,99.99
2018-09-28T07:16:42.063Z,99.99
2018-09-28T07:17:40.507Z,99.99
2018-09-28T07:18:39.995Z,99.99
2018-09-28T07:19:40.922Z,99.99
2018-09-28T07:20:43.000Z,99.99
2018-09-28T07:21:39.962Z,99.99
2018-09-28T07:22:39.627Z,99.99
2018-09-28T07:23:41.795Z,99.99
2018-09-28T07:24:39.024Z,99.99
2018-09-28T07:25:39.465Z,99.99
2018-09-28T07:26:40.018Z,99.99
2018-09-28T07:27:39.810Z,99.99
2018-09-28T07:28:42.002Z,99.99
2018-09-28T07:29:39.399Z,99.99
2018-09-28T07:30:41.811Z,99.99
2018-09-28T07:32:39.472Z,99.99
2018-09-28T07:33:39.954Z,99.99
2018-09-28T07:34:41.783Z,99.99
2018-09-28T07:35:39.978Z,99.99
2018-09-28T07:36:41.247Z,99.99
2018-09-28T07:37:39.949Z,99.99
2018-09-28T07:38:40.035Z,99.99
2018-09-28T07:39:40.008Z,99.99
2018-09-28T07:41:03.661Z,99.99
2018-09-28T07:41:40.131Z,99.99
2018-09-28T07:42:46.092Z,99.99
2018-09-28T07:43:45.981Z,99.99
2018-09-28T07:44:42.073Z,99.99
2018-09-28T07:45:45.828Z,99.99
2018-09-28T07:46:40.022Z,99.99
2018-09-28T07:47:40.515Z,99.99
2018-09-28T07:48:54.530Z,99.99
2018-09-28T07:49:40.281Z,99.99
2018-09-28T07:52:39.349Z,99.52
2018-09-28T07:54:44.356Z,99.52
2018-09-28T07:57:37.102Z,97.18
2018-09-28T07:58:40.247Z,97.52
2018-09-28T08:00:31.588Z,96.18
2018-09-28T08:01:32.462Z,95.79
2018-09-28T08:03:27.533Z,95.31
2018-09-28T08:04:26.148Z,94.93
2018-09-28T08:06:21.850Z,94.17
2018-09-28T08:08:35.080Z,93.59
2018-09-28T08:12:30.206Z,92.92
2018-09-28T08:14:27.397Z,91.44
2018-09-28T08:15:27.077Z,91.53
2018-09-28T08:17:19.547Z,91.15
2018-09-28T08:18:19.878Z,90.82
2018-09-28T08:20:20.036Z,90.44
2018-09-28T08:21:20.084Z,90.44
2018-09-28T08:22:41.499Z,90.34
2018-09-28T08:23:27.591Z,90.82
2018-09-28T08:24:41.701Z,90.53
2018-09-28T08:25:19.861Z,89.95
2018-09-28T08:26:19.571Z,89.67
2018-09-28T08:27:20.140Z,90.72
2018-09-28T08:28:20.513Z,90.53
2018-09-28T08:29:26.203Z,90.48
2018-09-28T08:30:20.097Z,90.00
2018-09-28T08:31:43.564Z,89.62
2018-09-28T08:32:21.052Z,89.90
2018-09-28T08:33:34.587Z,90.24
2018-09-28T08:34:23.024Z,90.63
2018-09-28T08:35:21.921Z,89.62
2018-09-28T08:36:20.070Z,89.81
2018-09-28T08:37:20.085Z,89.33
2018-09-28T08:38:19.815Z,89.14
2018-09-28T08:39:20.116Z,88.66
2018-09-28T08:40:21.638Z,88.47
2018-09-28T08:43:26.429Z,87.61
2018-09-28T08:44:22.480Z,86.46
2018-09-28T08:46:15.987Z,84.35
2018-09-28T08:47:16.729Z,84.35
2018-09-28T08:49:47.848Z,84.55
2018-09-28T08:51:11.584Z,83.39
2018-09-28T08:52:11.083Z,83.68
2018-09-28T08:53:26.102Z,82.43
2018-09-28T08:54:11.610Z,82.63
2018-09-28T08:55:11.610Z,82.53
2018-09-28T08:56:12.046Z,81.67
2018-09-28T08:57:10.960Z,81.20
2018-09-28T08:58:11.053Z,80.52
2018-09-28T08:59:11.390Z,79.47
2018-09-28T09:00:11.021Z,80.18
2018-09-28T09:01:11.422Z,79.51
2018-09-28T09:02:10.685Z,78.93
2018-09-28T09:03:13.742Z,78.17
2018-09-28T09:04:13.399Z,77.31
2018-09-28T09:05:13.459Z,76.73
2018-09-28T09:06:12.137Z,76.92
2018-09-28T09:07:10.793Z,77.21
2018-09-28T09:09:45.727Z,80.85
2018-09-28T09:11:59.367Z,77.97
2018-09-28T09:12:59.301Z,77.75
2018-09-28T09:14:57.578Z,77.17
2018-09-28T09:15:55.597Z,76.73
2018-09-28T09:17:48.198Z,76.89
2018-09-28T09:18:48.430Z,76.12
2018-09-28T09:20:42.869Z,76.12
2018-09-28T09:21:44.230Z,76.12
2018-09-28T09:23:37.033Z,75.73
2018-09-28T09:24:36.986Z,75.35
2018-09-28T09:26:32.183Z,75.54
2018-09-28T09:27:32.285Z,75.26
2018-09-28T09:29:26.928Z,75.45
2018-09-28T09:30:27.218Z,75.73
2018-09-28T09:32:21.063Z,75.64
2018-09-28T09:33:21.010Z,75.54
2018-09-28T09:35:15.475Z,76.40
2018-09-28T09:37:30.097Z,76.31
2018-09-28T09:38:30.684Z,75.83
2018-09-28T09:40:24.366Z,75.93
2018-09-28T09:41:25.034Z,76.69
2018-09-28T09:43:18.917Z,76.69
2018-09-28T09:44:21.565Z,75.96
2018-09-28T09:46:13.916Z,75.68
2018-09-28T09:47:13.381Z,76.21
2018-09-28T09:49:07.828Z,76.44
2018-09-28T09:50:08.853Z,75.10
2018-09-28T09:52:02.225Z,75.10
2018-09-28T09:53:02.586Z,75.48
2018-09-28T09:54:57.432Z,75.77
2018-09-28T09:55:57.740Z,75.39
2018-09-28T09:57:51.169Z,74.72
2018-09-28T09:58:51.620Z,74.52
2018-09-28T10:00:45.700Z,74.24
2018-09-28T10:01:45.960Z,74.49
2018-09-28T10:03:39.838Z,74.62
2018-09-28T10:04:40.490Z,74.24
2018-09-28T10:06:35.110Z,73.76
2018-09-28T10:07:35.126Z,73.86
2018-09-28T10:09:28.887Z,73.86
2018-09-28T10:10:29.265Z,73.66
2018-09-28T10:11:29.275Z,73.66
2018-09-28T10:12:29.116Z,73.38
2018-09-28T10:13:29.529Z,73.47
2018-09-28T10:14:29.386Z,73.09
2018-09-28T10:15:29.227Z,71.17
2018-09-28T10:16:29.249Z,70.98
2018-09-28T10:17:29.306Z,71.75
2018-09-28T10:18:29.227Z,71.59
2018-09-28T10:19:29.246Z,70.64
2018-09-28T10:20:29.327Z,69.96
2018-09-28T10:21:29.593Z,69.77
2018-09-28T10:22:29.305Z,70.19
2018-09-28T10:23:29.239Z,69.68
2018-09-28T10:24:29.233Z,69.48
2018-09-28T10:25:29.045Z,70.25
2018-09-28T10:26:29.337Z,69.96
2018-09-28T10:27:29.041Z,69.71
2018-09-28T10:28:29.290Z,68.95
2018-09-28T10:29:29.278Z,68.56
2018-09-28T10:30:29.238Z,68.46
2018-09-28T10:31:29.329Z,68.14
2018-09-28T10:32:29.731Z,67.57
2018-09-28T10:33:35.258Z,67.02
2018-09-28T10:36:03.418Z,65.75
2018-09-28T10:37:03.077Z,64.22
2018-09-28T10:40:31.225Z,64.12
2018-09-28T10:41:31.121Z,63.92
2018-09-28T10:43:25.383Z,63.00
2018-09-28T10:44:26.209Z,63.00
2018-09-28T10:47:04.512Z,60.89
2018-09-28T10:47:18.345Z,60.15
2018-09-28T10:49:15.794Z,58.45
2018-09-28T10:50:17.168Z,58.17
2018-09-28T10:51:14.763Z,57.04
2018-09-28T10:52:14.340Z,56.27
2018-09-28T10:54:48.690Z,54.96
2018-09-28T10:55:48.716Z,54.02
2018-09-28T11:03:28.471Z,51.72
2018-09-28T11:04:28.462Z,52.06
2018-09-28T11:05:31.158Z,51.60
2018-09-28T11:06:28.404Z,50.63
2018-09-28T11:07:35.384Z,49.96
2018-09-28T11:08:34.529Z,50.61
2018-09-28T11:09:29.016Z,50.45
2018-09-28T11:12:25.609Z,50.83
2018-09-28T11:14:00.668Z,51.19
2018-09-28T11:16:40.302Z,51.76
2018-09-28T11:19:30.629Z,52.54
2018-09-28T11:21:49.836Z,47.27
2018-09-28T11:22:24.771Z,46.71
2018-09-28T11:25:58.124Z,49.38
2018-09-28T11:26:58.051Z,50.37
2018-09-28T11:29:39.999Z,48.97
2018-09-28T11:30:38.464Z,50.23
2018-09-28T11:31:36.475Z,50.81
2018-09-28T11:32:38.911Z,51.09
2018-09-28T11:33:36.920Z,51.19
2018-09-28T11:35:12.855Z,52.25
2018-09-28T11:35:36.500Z,52.61
2018-09-28T11:36:37.009Z,52.97
2018-09-28T11:37:35.950Z,54.02
2018-09-28T11:38:36.018Z,55.53
2018-09-28T11:39:42.495Z,55.69
2018-09-28T11:40:37.887Z,55.63
2018-09-28T11:41:36.385Z,55.44
2018-09-28T11:42:35.679Z,54.96
2018-09-28T11:43:38.946Z,55.89
2018-09-28T11:44:36.386Z,56.46
2018-09-28T11:45:36.872Z,55.82
2018-09-28T11:46:36.772Z,55.73
2018-09-28T11:47:36.922Z,54.27
2018-09-28T11:50:11.073Z,47.94
2018-09-28T11:51:09.792Z,45.75
2018-09-28T11:53:05.616Z,44.70
2018-09-28T11:54:04.562Z,43.30
2018-09-28T11:56:06.997Z,38.87
2018-09-28T11:57:00.137Z,37.21
2018-09-28T11:58:56.359Z,35.64
2018-09-28T11:59:54.830Z,35.24
2018-09-28T12:01:51.901Z,35.14
2018-09-28T12:02:50.666Z,34.11
2018-09-28T12:04:47.377Z,33.22
2018-09-28T12:05:43.423Z,34.38
2018-09-28T12:07:40.007Z,37.19
2018-09-28T12:08:39.450Z,38.95
2018-09-28T12:09:40.207Z,40.86
2018-09-28T12:10:40.886Z,41.93
2018-09-28T12:11:43.898Z,41.91
2018-09-28T12:12:42.494Z,42.54
2018-09-28T12:13:48.557Z,43.94
2018-09-28T12:14:39.440Z,41.52
2018-09-28T12:15:41.146Z,36.56
2018-09-28T12:16:41.127Z,33.67
2018-09-28T12:17:42.442Z,34.12
2018-09-28T12:18:39.081Z,36.42
2018-09-28T12:19:43.607Z,38.70
2018-09-28T12:20:38.418Z,35.40
2018-09-28T12:21:39.009Z,32.13
2018-09-28T12:22:41.171Z,31.87
2018-09-28T12:23:38.436Z,32.67
2018-09-28T12:24:41.277Z,35.68
2018-09-28T12:25:42.435Z,37.23
2018-09-28T12:26:40.461Z,38.37
2018-09-28T12:27:38.532Z,35.90
2018-09-28T12:28:41.561Z,32.67
2018-09-28T12:29:39.561Z,30.94
2018-09-28T12:30:38.513Z,30.26
2018-09-28T12:31:41.462Z,29.86
2018-09-28T12:32:41.731Z,29.58
2018-09-28T12:33:39.252Z,28.47
2018-09-28T12:34:40.004Z,27.52
2018-09-28T12:35:39.278Z,26.80
2018-09-28T12:36:39.750Z,28.78
2018-09-28T12:37:38.567Z,29.53
2018-09-28T12:38:38.592Z,28.40
2018-09-28T12:39:38.700Z,27.50
2018-09-28T12:40:38.545Z,29.85
2018-09-28T12:41:40.028Z,32.94
2018-09-28T12:42:39.676Z,33.01
2018-09-28T12:43:40.124Z,30.38
2018-09-28T12:44:54.479Z,28.68
2018-09-28T12:45:40.114Z,27.05
2018-09-28T12:46:41.079Z,25.05
2018-09-28T12:47:42.018Z,24.63
2018-09-28T12:48:40.129Z,25.70
2018-09-28T12:49:39.585Z,28.20
2018-09-28T12:50:40.139Z,27.48
2018-09-28T12:51:42.036Z,27.83
2018-09-28T12:54:12.954Z,31.34
2018-09-28T12:55:13.079Z,33.72
2018-09-28T12:56:13.100Z,34.88
2018-09-28T12:57:19.646Z,37.23
2018-09-28T12:58:13.590Z,38.68
2018-09-28T12:59:12.726Z,38.76
2018-09-28T13:00:13.786Z,40.09
2018-09-28T13:01:33.774Z,40.07
2018-09-28T13:02:13.252Z,40.94
2018-09-28T13:03:13.212Z,41.02
2018-09-28T13:04:12.757Z,41.78
2018-09-28T13:05:30.724Z,41.98
2018-09-28T13:06:13.309Z,42.08
2018-09-28T13:08:46.777Z,43.58
2018-09-28T13:09:46.717Z,44.32
2018-09-28T13:13:13.895Z,42.47
2018-09-28T13:15:28.521Z,33.72
2018-09-28T13:16:28.830Z,32.40
2018-09-28T13:19:56.066Z,28.75
2018-09-28T13:22:29.134Z,28.20
2018-09-28T13:23:28.278Z,28.19
2018-09-28T13:26:55.640Z,29.88
2018-09-28T13:27:55.827Z,28.57
2018-09-28T13:30:44.217Z,26.95
2018-09-28T13:30:48.828Z,26.10
2018-09-28T13:32:44.663Z,27.15
2018-09-28T13:35:11.992Z,34.30
2018-09-28T13:36:12.365Z,35.72
2018-09-28T13:38:05.507Z,38.18
2018-09-28T13:39:06.015Z,39.64
2018-09-28T13:40:59.889Z,44.04
2018-09-28T13:44:48.377Z,45.97
2018-09-28T13:47:03.639Z,46.35
2018-09-28T13:48:04.347Z,46.06
2018-09-28T13:49:57.808Z,46.78
2018-09-28T13:50:58.326Z,46.78
2018-09-28T13:51:57.844Z,47.17
2018-09-28T13:56:04.009Z,46.04
2018-09-28T13:57:03.894Z,45.29
2018-09-28T14:01:12.986Z,45.12
2018-09-28T14:05:21.216Z,42.25
2018-09-28T14:06:21.602Z,39.84
2018-09-28T14:07:49.312Z,36.90
2018-09-28T14:08:20.802Z,35.11
2018-09-28T14:10:57.667Z,33.39
2018-09-28T14:11:58.178Z,32.92
2018-09-28T14:13:55.032Z,33.39
2018-09-28T14:16:35.563Z,33.01
2018-09-28T14:17:23.756Z,32.42
2018-09-28T14:19:20.658Z,31.57
2018-09-28T14:20:41.365Z,30.69
2018-09-28T14:22:54.026Z,31.47
2018-09-28T14:23:54.187Z,30.59
2018-09-28T14:24:56.252Z,29.93
2018-09-28T14:25:53.480Z,29.54
2018-09-28T14:28:27.679Z,29.64
2018-09-28T14:29:29.099Z,28.75
2018-09-28T14:31:20.698Z,28.76
2018-09-28T14:33:38.656Z,27.96
2018-09-28T14:35:49.550Z,27.15
2018-09-28T14:38:03.745Z,27.48
2018-09-28T14:39:04.967Z,27.56
2018-09-28T14:40:58.506Z,28.33
2018-09-28T14:43:12.671Z,29.08
2018-09-28T14:44:12.728Z,29.26
2018-09-28T14:46:07.005Z,30.79
2018-09-28T14:48:56.998Z,33.05
2018-09-28T14:51:11.673Z,34.66
2018-09-28T14:52:11.642Z,34.94
2018-09-28T14:54:07.849Z,35.69
2018-09-28T14:55:07.838Z,36.48
2018-09-28T14:56:07.853Z,36.38
2018-09-28T14:57:07.811Z,36.55
2018-09-28T14:58:08.470Z,36.75
2018-09-28T14:59:07.834Z,36.89
2018-09-28T15:01:55.430Z,39.59
2018-09-28T15:04:29.037Z,40.63
2018-09-28T15:09:13.389Z,41.66
2018-09-28T15:10:13.442Z,42.24
2018-09-28T15:12:13.128Z,43.37
2018-09-28T15:13:13.021Z,44.14
2018-09-28T15:14:36.903Z,46.81
2018-09-28T15:15:13.025Z,48.64
2018-09-28T15:16:13.010Z,49.22
2018-09-28T15:17:13.021Z,49.31
2018-09-28T15:18:13.124Z,49.12
2018-09-28T15:19:13.031Z,49.19
2018-09-28T15:20:13.050Z,50.80
2018-09-28T15:21:13.030Z,51.18
2018-09-28T15:22:13.837Z,50.90
2018-09-28T15:23:13.147Z,50.54
2018-09-28T15:24:13.136Z,49.77
2018-09-28T15:25:13.096Z,50.92
2018-09-28T15:26:13.127Z,50.51
2018-09-28T15:27:13.086Z,51.86
2018-09-28T15:28:13.067Z,52.14
2018-09-28T15:29:13.106Z,52.05
2018-09-28T15:30:13.091Z,52.17
2018-09-28T15:31:13.043Z,51.57
2018-09-28T15:32:13.052Z,52.24
2018-09-28T15:34:46.559Z,51.93
2018-09-28T15:35:46.479Z,51.86
2018-09-28T15:36:46.503Z,51.35
2018-09-28T15:37:47.602Z,51.51
2018-09-28T15:39:01.292Z,51.73
2018-09-28T15:39:46.541Z,51.35
2018-09-28T15:40:46.561Z,50.87
2018-09-28T15:41:46.505Z,50.32
2018-09-28T15:42:46.533Z,50.78
2018-09-28T15:43:46.503Z,51.45
2018-09-28T15:45:48.492Z,51.73
2018-09-28T15:46:46.512Z,51.93
2018-09-28T15:49:59.302Z,52.50
2018-09-28T15:51:34.611Z,52.57
2018-09-28T15:53:49.311Z,52.98
2018-09-28T15:54:49.330Z,52.86
2018-09-28T15:56:44.702Z,52.95
2018-09-28T15:59:26.776Z,53.91
2018-09-28T16:00:26.158Z,54.39
2018-09-28T16:02:34.765Z,54.39
2018-09-28T16:03:34.683Z,54.58
2018-09-28T16:34:05.048Z,60.22
2018-09-28T16:34:56.405Z,60.86
2018-09-28T16:37:29.370Z,61.63
2018-09-28T16:38:29.300Z,61.82
2018-09-28T16:40:45.019Z,62.49
2018-09-28T16:41:23.997Z,62.74
2018-09-28T16:44:17.053Z,62.36
2018-09-28T16:46:21.066Z,63.89
2018-09-28T16:48:37.088Z,63.10
2018-09-28T16:49:35.728Z,62.74
2018-09-28T16:51:36.682Z,62.17
2018-09-28T16:52:33.185Z,62.84
2018-09-28T16:54:25.123Z,62.84
2018-09-28T16:57:19.907Z,63.96
2018-09-28T17:00:14.567Z,64.15
2018-09-28T17:02:53.954Z,63.86
2018-09-28T17:03:42.007Z,63.96
2018-09-28T17:06:02.335Z,63.96
2018-09-28T17:13:16.845Z,63.86
2018-09-28T17:16:01.396Z,64.88
2018-09-28T17:17:02.912Z,65.55
2018-09-28T17:19:00.137Z,66.03
2018-09-28T17:20:00.070Z,66.13
2018-09-28T17:21:00.065Z,66.41
2018-09-28T17:22:01.052Z,66.51
2018-09-28T17:23:00.045Z,65.55
2018-09-28T17:24:02.019Z,65.45
2018-09-28T17:25:00.039Z,65.45
2018-09-28T17:26:00.033Z,65.68
2018-09-28T17:27:00.043Z,65.68
2018-09-28T17:28:02.029Z,66.32
2018-09-28T17:29:00.081Z,66.51
2018-09-28T17:30:00.031Z,66.80
2018-09-28T17:31:00.000Z,66.70
2018-09-28T17:32:00.016Z,66.89
2018-09-28T17:33:00.024Z,66.70
2018-09-28T17:34:00.030Z,66.80
2018-09-28T17:35:00.049Z,67.27
2018-09-28T17:35:59.985Z,67.18
2018-09-28T17:37:14.832Z,67.08
2018-09-28T17:38:00.027Z,67.63
2018-09-28T17:39:00.024Z,67.63
2018-09-28T17:40:00.026Z,67.91
2018-09-28T17:41:14.847Z,68.20
2018-09-28T17:41:59.964Z,67.63
2018-09-28T17:42:59.997Z,67.72
2018-09-28T17:44:01.094Z,67.76
2018-09-28T17:45:00.003Z,68.77
2018-09-28T17:45:59.981Z,68.58
2018-09-28T17:46:59.983Z,68.29
2018-09-28T17:47:59.969Z,68.58
2018-09-28T17:48:59.990Z,68.58
2018-09-28T17:50:00.001Z,69.35
2018-09-28T17:51:00.833Z,69.25
2018-09-28T17:51:59.989Z,69.25
2018-09-28T17:52:59.953Z,69.25
2018-09-28T17:54:00.095Z,69.35
2018-09-28T17:54:59.955Z,69.54
2018-09-28T17:55:59.987Z,69.35
2018-09-28T17:58:16.834Z,69.44
2018-09-28T17:59:00.121Z,70.50
2018-09-28T18:00:22.868Z,70.59
2018-09-28T18:01:01.936Z,70.65
2018-09-28T18:02:28.888Z,70.59
2018-09-28T18:02:59.962Z,70.30
2018-09-28T18:04:02.876Z,69.92